Current | Forecast
Updated: 3:00 PM +12 on April 29, 2017
Observed at Petropavlovsk Kamchatskij, Russia
Temperature 52°F
Humidity 44%
Dew Point 30°F
Wind NNW at 20 mph
Pressure 29.03 in (Rising)
Conditions Clear
Visibility 6.2 miles
UV N/A
Clouds
Yesterday's Maximum 36°F
Yesterday's Minimum 32°F approx.
Yesterday's Heating Degree Days 31 approx.
Sunrise5:58 PM UTC
Sunset8:52 AM UTC
Moon Rise8:55 PM UTC
Moon Set12:06 PM UTC
Moon PhaseMoon Phase
Waxing Crescent
Raw METARMETAR UHPP 290300Z 33009MPS 9999 NSC 11/M01 Q0983 R34L/CLRD70 NOSIG RMK MT OBSC QFE734/0978


Monday
. High: 42° F.
Tuesday
. High: 44° F.
Wednesday
. High: 39° F.
Thursday
. High: 35° F.
Friday
. High: 37° F.
Saturday
. High: 44° F.
Sunday
. High: 50° F.
Monday
. High: 41° F.

Units: English | Metric

Find the Weather for any City, State or Zipcode, or Country:

U.S. State List | Severe Weather | Tropical Storms | Ski Conditions
United States | Canada | Central America | South America | Asia | Europe | Australia | Africa | Islands

Weather Underground

© Copyright 2017
The Weather Company, LLC